Time;durP1;ratioP1;P1;durP2;ratioP2;P2;SDS_P1;SDS_P2;PMS_P1;PMS_P2;Temp;Humidity;BMP_temperature;BMP_pressure;BME280_temperature;BME280_humidity;BME280_pressure;Samples;Min_cycle;Max_cycle;Signal;HPM_P1;HPM_P2
2022/12/23 00:01:01;;;;;;;;;1.00;1.00;;;;;13.68;100.00;100618.84;5026895;28;45393;-84
2022/12/23 00:03:28;;;;;;;;;0.33;0.33;;;;;13.76;100.00;100616.13;5038820;28;45189;-83
2022/12/23 00:05:54;;;;;;;;;1.00;1.00;;;;;13.76;100.00;100610.66;5037444;28;47265;-82
2022/12/23 00:08:20;;;;;;;;;1.00;1.00;;;;;13.82;100.00;100607.22;5028240;28;45173;-83
2022/12/23 00:10:47;;;;;;;;;0.00;0.00;;;;;13.76;100.00;100602.47;5035865;28;45373;-82
2022/12/23 00:16:13;;;;;;;;;1.33;1.33;;;;;13.89;100.00;100615.59;5028348;28;45466;-82
2022/12/23 00:18:39;;;;;;;;;0.33;0.33;;;;;13.95;100.00;100617.66;5040187;28;45265;-82
2022/12/23 00:21:09;;;;;;;;;0.00;0.00;;;;;13.94;100.00;100616.78;5037492;28;45294;-82
2022/12/23 00:23:37;;;;;;;;;2.33;0.33;;;;;14.00;100.00;100616.09;5040992;28;45314;-83
2022/12/23 00:26:03;;;;;;;;;2.00;0.00;;;;;14.00;100.00;100621.56;5043015;28;45645;-82
2022/12/23 00:28:29;;;;;;;;;1.67;1.00;;;;;13.99;100.00;100621.72;5037114;28;45391;-82
2022/12/23 00:31:03;;;;;;;;;0.00;0.00;;;;;14.03;100.00;100623.94;5035443;28;45295;-83
2022/12/23 00:33:35;;;;;;;;;2.00;0.00;;;;;13.99;100.00;100622.59;5038936;28;45473;-82
2022/12/23 00:36:01;;;;;;;;;2.33;0.00;;;;;14.00;100.00;100618.81;5031567;28;45281;-83
2022/12/23 00:44:00;;;;;;;;;2.00;1.00;;;;;13.95;100.00;100606.72;5026755;28;45311;-82
2022/12/23 00:46:26;;;;;;;;;0.00;0.00;;;;;13.92;100.00;100607.06;5042988;28;46432;-82
2022/12/23 00:51:35;;;;;;;;;1.00;1.00;;;;;13.93;100.00;100620.56;5039383;28;45231;-82
2022/12/23 00:54:01;;;;;;;;;0.67;0.67;;;;;13.94;100.00;100627.72;5033123;28;45512;-82
2022/12/23 00:56:27;;;;;;;;;1.00;1.00;;;;;13.88;100.00;100641.22;5038637;28;48269;-83
2022/12/23 00:58:52;;;;;;;;;1.00;1.00;;;;;13.87;100.00;100640.38;5031657;28;45330;-82
2022/12/23 01:06:46;;;;;;;;;1.00;0.00;;;;;13.91;100.00;100666.28;5053275;28;44954;-83
2022/12/23 01:09:12;;;;;;;;;1.00;1.00;;;;;13.86;100.00;100671.44;5059230;28;44756;-83
2022/12/23 01:11:37;;;;;;;;;2.00;1.00;;;;;13.80;100.00;100663.91;5062365;28;44920;-84
2022/12/23 01:14:02;;;;;;;;;2.00;2.00;;;;;13.84;100.00;100659.81;5053448;28;46186;-80
2022/12/23 01:16:28;;;;;;;;;2.67;2.00;;;;;13.89;100.00;100662.00;5023973;28;46748;-80
2022/12/23 01:18:53;;;;;;;;;4.00;1.33;;;;;13.93;100.00;100658.78;5023942;28;45519;-79
2022/12/23 01:21:20;;;;;;;;;0.00;0.00;;;;;13.97;100.00;100657.41;5024031;28;45238;-81
2022/12/23 01:23:45;;;;;;;;;3.00;2.00;;;;;13.91;100.00;100651.78;5022537;28;45503;-82
2022/12/23 01:26:11;;;;;;;;;0.00;0.00;;;;;13.95;100.00;100651.25;5024842;28;46620;-81
2022/12/23 01:28:36;;;;;;;;;0.00;0.00;;;;;13.95;100.00;100656.72;5023541;28;45442;-83
2022/12/23 01:31:04;;;;;;;;;0.33;0.33;;;;;13.97;100.00;100659.28;5026354;28;45381;-82
2022/12/23 01:33:32;;;;;;;;;0.67;0.67;;;;;13.98;100.00;100661.00;5019583;28;45528;-82
2022/12/23 01:35:59;;;;;;;;;1.00;1.00;;;;;13.96;100.00;100657.56;5025545;28;47057;-82
2022/12/23 01:38:25;;;;;;;;;1.00;0.00;;;;;13.94;100.00;100660.50;5037659;28;45218;-83
2022/12/23 01:40:50;;;;;;;;;2.00;0.67;;;;;13.95;100.00;100655.88;5034531;28;45122;-84
2022/12/23 01:43:17;;;;;;;;;3.00;0.00;;;;;13.83;100.00;100668.16;5040197;28;45505;-83
2022/12/23 01:45:42;;;;;;;;;1.67;1.00;;;;;13.82;100.00;100661.84;5036907;28;46325;-83
2022/12/23 01:48:11;;;;;;;;;1.00;1.00;;;;;13.83;100.00;100671.75;5040112;28;45183;-81
2022/12/23 01:50:45;;;;;;;;;0.00;0.00;;;;;13.90;100.00;100672.78;5045656;28;44891;-83
2022/12/23 01:53:13;;;;;;;;;1.00;1.00;;;;;13.96;100.00;100672.09;5041490;28;45397;-81
2022/12/23 01:55:45;;;;;;;;;0.00;0.00;;;;;13.97;100.00;100662.88;5031666;28;45554;-81
2022/12/23 01:58:16;;;;;;;;;0.67;0.67;;;;;13.96;100.00;100663.03;5041264;28;45378;-82
2022/12/23 02:03:41;;;;;;;;;0.00;0.00;;;;;13.94;100.00;100660.50;5031157;28;45434;-81
2022/12/23 02:11:46;;;;;;;;;0.67;0.67;;;;;14.02;100.00;100678.75;5041248;28;45519;-80
2022/12/23 02:16:15;;;;;;;;;0.00;0.00;;;;;14.00;100.00;100673.47;5044522;28;45271;-81
2022/12/23 02:17:19;;;;;;;;;0.33;0.33;;;;;14.03;100.00;100670.38;5039313;28;45443;-82
2022/12/23 02:20:12;;;;;;;;;0.00;0.00;;;;;14.06;100.00;100662.84;5035534;28;45433;-83
2022/12/23 02:23:16;;;;;;;;;0.00;0.00;;;;;14.07;100.00;100657.22;5037145;28;45429;-83
2022/12/23 02:26:09;;;;;;;;;0.00;0.00;;;;;14.10;100.00;100654.13;5035900;28;45482;-82
2022/12/23 02:28:55;;;;;;;;;1.00;1.00;;;;;14.09;100.00;100649.72;5032764;28;47108;-81
2022/12/23 02:31:31;;;;;;;;;1.33;0.00;;;;;14.10;100.00;100650.56;5043355;28;45584;-83
2022/12/23 02:34:00;;;;;;;;;1.00;1.00;;;;;14.00;100.00;100654.34;5039105;28;45368;-83
2022/12/23 02:36:54;;;;;;;;;0.00;0.00;;;;;14.04;100.00;100652.09;5039659;28;45564;-83
2022/12/23 02:39:28;;;;;;;;;0.00;0.00;;;;;13.99;100.00;100662.69;5030050;28;46665;-83
2022/12/23 02:42:03;;;;;;;;;0.33;0.33;;;;;13.93;100.00;100647.88;5051899;28;45248;-84
2022/12/23 02:44:37;;;;;;;;;1.00;1.00;;;;;13.92;100.00;100642.56;5034225;28;45448;-83
2022/12/23 02:47:21;;;;;;;;;2.00;1.00;;;;;14.00;100.00;100643.41;5033144;28;45357;-83
2022/12/23 02:49:51;;;;;;;;;0.00;0.00;;;;;14.03;100.00;100637.59;5034912;28;45647;-83
2022/12/23 02:52:20;;;;;;;;;2.00;1.00;;;;;14.09;100.00;100648.88;5045704;28;45393;-82
2022/12/23 02:54:57;;;;;;;;;1.00;1.00;;;;;14.06;100.00;100635.53;5044790;28;45436;-82
2022/12/23 02:57:28;;;;;;;;;0.33;0.00;;;;;14.09;100.00;100651.59;5046991;28;45441;-82
2022/12/23 02:59:55;;;;;;;;;1.00;1.00;;;;;14.06;100.00;100636.41;5037403;28;46819;-81
2022/12/23 03:02:21;;;;;;;;;1.00;1.00;;;;;14.07;100.00;100646.31;5035681;28;45411;-82
2022/12/23 03:04:46;;;;;;;;;2.00;1.00;;;;;14.00;100.00;100650.75;5041241;28;45472;-82
2022/12/23 03:07:30;;;;;;;;;3.00;1.33;;;;;14.01;100.00;100658.78;5031038;28;45691;-82
2022/12/23 03:10:21;;;;;;;;;2.33;2.00;;;;;14.03;100.00;100643.03;5033447;28;47019;-83
2022/12/23 03:13:02;;;;;;;;;2.00;2.00;;;;;14.01;100.00;100650.59;5039170;28;45834;-82
2022/12/23 03:15:55;;;;;;;;;1.00;1.00;;;;;14.03;100.00;100648.50;5032479;28;45552;-82
2022/12/23 03:18:45;;;;;;;;;1.00;1.00;;;;;14.06;100.00;100638.28;5036616;28;46291;-82
2022/12/23 03:21:28;;;;;;;;;3.67;2.00;;;;;14.02;100.00;100618.66;5036721;28;45428;-82
2022/12/23 03:24:14;;;;;;;;;1.67;1.67;;;;;14.04;100.00;100617.44;5040080;28;47385;-82
2022/12/23 03:26:50;;;;;;;;;1.67;1.67;;;;;14.00;100.00;100621.56;5039716;28;45303;-82
2022/12/23 03:29:34;;;;;;;;;2.00;1.00;;;;;13.93;100.00;100623.28;5036263;28;45276;-81
2022/12/23 03:32:03;;;;;;;;;0.00;0.00;;;;;14.03;100.00;100626.66;5041871;28;46659;-82
2022/12/23 03:34:35;;;;;;;;;1.00;1.00;;;;;13.95;100.00;100623.94;5035586;28;45337;-82
2022/12/23 03:37:05;;;;;;;;;3.67;1.33;;;;;13.98;100.00;100629.06;5042472;28;45204;-81
2022/12/23 03:39:37;;;;;;;;;1.33;1.33;;;;;13.98;100.00;100631.78;5035265;28;45397;-82
2022/12/23 03:42:26;;;;;;;;;1.33;1.33;;;;;13.96;100.00;100636.56;5042454;28;45502;-82
2022/12/23 03:44:54;;;;;;;;;0.50;0.50;;;;;13.97;100.00;100643.75;5036590;28;45262;-81
2022/12/23 03:47:28;;;;;;;;;1.00;1.00;;;;;13.90;100.00;100636.41;5032088;28;45363;-82
2022/12/23 03:50:03;;;;;;;;;0.00;0.00;;;;;13.88;100.00;100633.84;5038157;28;45378;-82
2022/12/23 03:52:40;;;;;;;;;2.00;2.00;;;;;13.87;100.00;100634.91;5042480;28;45530;-81
2022/12/23 03:55:22;;;;;;;;;1.00;1.00;;;;;13.93;100.00;100644.28;5037467;28;45360;-81
2022/12/23 03:57:57;;;;;;;;;4.00;3.00;;;;;13.90;100.00;100630.94;5029069;28;45483;-82
2022/12/23 04:00:24;;;;;;;;;2.67;2.67;;;;;13.89;100.00;100637.44;5031057;28;45492;-81
2022/12/23 04:03:08;;;;;;;;;1.33;1.33;;;;;13.92;100.00;100640.69;5037059;28;45648;-81
2022/12/23 04:05:39;;;;;;;;;4.00;1.00;;;;;13.87;100.00;100637.63;5031411;28;45448;-81
2022/12/23 04:08:16;;;;;;;;;0.00;0.00;;;;;13.87;100.00;100634.91;5040921;28;45395;-81
2022/12/23 04:10:42;;;;;;;;;1.67;1.67;;;;;13.92;100.00;100624.31;5033055;28;45453;-80
2022/12/23 04:13:07;;;;;;;;;3.00;1.67;;;;;13.84;100.00;100613.38;5035780;28;45920;-81
2022/12/23 04:15:32;;;;;;;;;1.33;1.00;;;;;13.85;100.00;100609.63;5033731;28;45346;-81
2022/12/23 04:17:58;;;;;;;;;2.67;1.00;;;;;13.80;100.00;100606.56;5040439;28;45402;-81
2022/12/23 04:20:24;;;;;;;;;1.00;1.00;;;;;13.80;100.00;100608.44;5039353;28;45352;-82
2022/12/23 04:22:49;;;;;;;;;2.67;1.00;;;;;13.78;100.00;100600.44;5042241;28;46543;-82
2022/12/23 04:25:16;;;;;;;;;1.67;1.67;;;;;13.86;100.00;100614.06;5047710;28;45329;-82
2022/12/23 04:27:42;;;;;;;;;5.00;1.00;;;;;13.82;100.00;100611.84;5040419;28;45361;-83
2022/12/23 04:30:09;;;;;;;;;0.33;0.33;;;;;13.90;100.00;100622.75;5031050;28;45285;-82
2022/12/23 04:32:35;;;;;;;;;7.33;7.33;;;;;13.89;100.00;100624.63;5042410;28;47003;-82
2022/12/23 04:35:01;;;;;;;;;1.00;1.00;;;;;13.89;100.00;100627.38;5031437;28;45532;-82
2022/12/23 04:37:26;;;;;;;;;5.67;1.67;;;;;13.81;100.00;100607.41;5043554;28;45232;-81
2022/12/23 04:39:52;;;;;;;;;1.00;1.00;;;;;13.71;100.00;100599.41;5034407;28;45295;-81
2022/12/23 04:42:17;;;;;;;;;1.00;1.00;;;;;13.79;100.00;100604.88;5030674;28;45471;-82
2022/12/23 04:44:42;;;;;;;;;1.00;1.00;;;;;13.79;100.00;100613.06;5038300;28;45472;-81
2022/12/23 04:47:08;;;;;;;;;3.67;1.00;;;;;13.75;100.00;100617.16;5030281;28;45374;-81
2022/12/23 04:49:33;;;;;;;;;1.00;1.00;;;;;13.79;100.00;100610.34;5031723;28;45635;-82
2022/12/23 04:51:59;;;;;;;;;3.00;3.00;;;;;13.77;100.00;100598.72;5039710;28;46358;-82
2022/12/23 04:54:24;;;;;;;;;3.00;2.00;;;;;13.76;100.00;100605.19;5035752;28;45406;-82
2022/12/23 04:56:49;;;;;;;;;2.67;2.00;;;;;13.81;100.00;100599.22;5031383;28;45478;-81
2022/12/23 04:59:15;;;;;;;;;3.67;2.00;;;;;13.78;100.00;100586.78;5030292;28;45658;-82
2022/12/23 05:01:43;;;;;;;;;4.00;2.00;;;;;13.85;100.00;100604.16;5031572;28;46959;-83
2022/12/23 05:04:09;;;;;;;;;1.67;1.67;;;;;13.91;100.00;100599.88;5037848;28;45410;-82
2022/12/23 05:06:35;;;;;;;;;1.67;1.67;;;;;13.87;100.00;100593.09;5041742;28;45292;-82
2022/12/23 05:09:00;;;;;;;;;2.00;1.67;;;;;13.88;100.00;100594.78;5040196;28;45250;-82
2022/12/23 05:11:26;;;;;;;;;3.00;2.00;;;;;13.94;100.00;100605.88;5036037;28;45572;-82
2022/12/23 05:13:51;;;;;;;;;3.67;2.67;;;;;13.86;100.00;100589.50;5040314;28;45369;-82
2022/12/23 05:16:17;;;;;;;;;3.67;3.00;;;;;13.94;100.00;100603.13;5032396;28;45365;-82
2022/12/23 05:18:42;;;;;;;;;3.67;2.00;;;;;13.94;100.00;100599.56;5038726;28;45300;-81
2022/12/23 05:21:07;;;;;;;;;3.00;3.00;;;;;13.97;100.00;100597.31;5033413;28;45538;-82
2022/12/23 05:23:33;;;;;;;;;2.67;0.33;;;;;13.97;100.00;100582.81;5039609;28;45450;-82
2022/12/23 05:25:58;;;;;;;;;2.00;2.00;;;;;14.04;100.00;100584.66;5033874;28;45315;-82
2022/12/23 05:28:23;;;;;;;;;4.67;2.67;;;;;14.06;100.00;100576.28;5039968;28;45496;-81
2022/12/23 05:31:06;;;;;;;;;1.67;1.67;;;;;14.07;100.00;100583.47;5033581;28;46284;-81
2022/12/23 05:33:32;;;;;;;;;3.00;3.00;;;;;14.11;100.00;100592.16;5039295;28;46023;-81
2022/12/23 05:35:58;;;;;;;;;2.67;2.33;;;;;14.10;100.00;100576.81;5032836;28;45434;-81
2022/12/23 05:38:24;;;;;;;;;6.67;4.00;;;;;14.14;100.00;100586.34;5036916;28;45624;-82
2022/12/23 05:40:49;;;;;;;;;3.33;1.00;;;;;14.13;100.00;100587.38;5039855;28;46895;-81
2022/12/23 05:43:15;;;;;;;;;4.33;2.00;;;;;14.13;100.00;100577.28;5042678;28;46103;-81
2022/12/23 05:45:41;;;;;;;;;2.00;2.00;;;;;14.06;100.00;100562.63;5025888;28;45426;-82
2022/12/23 05:48:07;;;;;;;;;1.00;1.00;;;;;14.04;100.00;100565.53;5039093;28;45434;-83
2022/12/23 05:50:32;;;;;;;;;4.00;2.00;;;;;14.11;100.00;100560.22;5040900;28;46447;-82
2022/12/23 05:52:58;;;;;;;;;1.00;1.00;;;;;14.08;100.00;100554.28;5043784;28;45347;-82
2022/12/23 05:55:24;;;;;;;;;3.33;1.33;;;;;14.09;100.00;100553.25;5031109;28;45210;-82
2022/12/23 05:57:50;;;;;;;;;2.00;2.00;;;;;13.98;100.00;100549.84;5037990;28;45549;-82
2022/12/23 06:00:16;;;;;;;;;3.00;1.00;;;;;14.04;100.00;100557.34;5044319;28;45418;-81
2022/12/23 06:02:41;;;;;;;;;3.00;1.00;;;;;13.98;100.00;100547.13;5030891;28;45232;-82
2022/12/23 06:05:07;;;;;;;;;2.00;1.00;;;;;14.06;100.00;100553.59;5034017;28;45367;-82
2022/12/23 06:07:32;;;;;;;;;0.00;0.00;;;;;14.08;100.00;100557.00;5035554;28;45638;-82
2022/12/23 06:09:58;;;;;;;;;3.00;1.00;;;;;14.03;100.00;100561.09;5033162;28;45461;-81
2022/12/23 06:12:23;;;;;;;;;2.67;2.67;;;;;14.02;100.00;100561.28;5028658;28;45362;-82
2022/12/23 06:14:48;;;;;;;;;1.00;1.00;;;;;14.01;100.00;100562.31;5033868;28;45346;-82
2022/12/23 06:17:14;;;;;;;;;1.00;1.00;;;;;14.03;100.00;100561.09;5039771;28;45530;-82
2022/12/23 06:19:39;;;;;;;;;1.00;1.00;;;;;14.08;100.00;100548.81;5043841;28;47018;-83
2022/12/23 06:22:04;;;;;;;;;1.67;1.67;;;;;14.11;100.00;100552.03;5033787;28;45433;-82
2022/12/23 06:24:30;;;;;;;;;3.00;3.00;;;;;14.09;100.00;100558.72;5038881;28;45477;-81
2022/12/23 06:26:55;;;;;;;;;5.00;1.67;;;;;14.14;100.00;100554.41;5035744;28;45484;-83
2022/12/23 06:29:20;;;;;;;;;2.33;2.33;;;;;14.10;100.00;100555.78;5039711;28;45319;-81
2022/12/23 06:31:46;;;;;;;;;5.33;2.67;;;;;14.09;100.00;100558.72;5035126;28;45326;-80
2022/12/23 06:34:12;;;;;;;;;2.00;2.00;;;;;14.11;100.00;100556.63;5037794;28;45425;-81
2022/12/23 06:36:37;;;;;;;;;3.00;1.00;;;;;14.11;100.00;100545.72;5037675;28;45426;-81
2022/12/23 06:39:02;;;;;;;;;1.00;1.00;;;;;14.09;100.00;100539.59;5041688;28;45457;-81
2022/12/23 06:41:28;;;;;;;;;3.00;3.00;;;;;14.10;100.00;100531.19;5038162;28;45390;-81
2022/12/23 06:43:53;;;;;;;;;8.67;8.67;;;;;14.16;100.00;100529.66;5038698;28;45315;-83
2022/12/23 06:46:18;;;;;;;;;2.00;2.00;;;;;14.17;100.00;100534.09;5041413;28;45239;-82
2022/12/23 06:48:44;;;;;;;;;3.33;2.33;;;;;14.16;100.00;100532.38;5041893;28;46350;-80
2022/12/23 06:51:10;;;;;;;;;2.00;2.00;;;;;14.18;100.00;100530.31;5042350;28;45330;-81
2022/12/23 06:53:35;;;;;;;;;3.00;1.67;;;;;14.14;100.00;100528.97;5041734;28;45350;-80
2022/12/23 06:56:02;;;;;;;;;3.00;1.00;;;;;14.08;100.00;100516.03;5035259;28;45227;-81
2022/12/23 06:58:28;;;;;;;;;1.33;1.33;;;;;14.14;100.00;100512.59;5032737;28;45648;-81
2022/12/23 07:00:54;;;;;;;;;0.67;0.67;;;;;14.20;100.00;100518.19;5037658;28;46373;-81
2022/12/23 07:03:19;;;;;;;;;1.33;0.67;;;;;14.17;100.00;100507.59;5034714;28;45507;-82
2022/12/23 07:05:48;;;;;;;;;1.00;1.00;;;;;14.18;100.00;100500.25;5035717;28;45602;-81
2022/12/23 07:08:14;;;;;;;;;0.00;0.00;;;;;14.16;100.00;100505.06;5042854;28;45515;-81
2022/12/23 07:10:40;;;;;;;;;0.33;0.33;;;;;14.18;100.00;100498.38;5045684;28;45362;-81
2022/12/23 07:13:05;;;;;;;;;0.67;0.00;;;;;14.25;100.00;100503.97;5043653;28;45663;-85
2022/12/23 07:15:31;;;;;;;;;0.33;0.33;;;;;14.23;100.00;100504.19;5034962;28;45559;-83
2022/12/23 07:17:56;;;;;;;;;0.00;0.00;;;;;14.22;100.00;100491.53;5036705;28;47079;-82
2022/12/23 07:20:21;;;;;;;;;1.67;0.00;;;;;14.23;100.00;100495.13;5031764;28;45200;-81
2022/12/23 07:22:49;;;;;;;;;2.00;2.00;;;;;14.27;100.00;100501.94;5044776;28;45485;-81
2022/12/23 07:25:15;;;;;;;;;0.00;0.00;;;;;14.29;100.00;100491.69;5038123;28;45417;-82
2022/12/23 07:27:40;;;;;;;;;0.00;0.00;;;;;14.30;100.00;100485.19;5032723;28;47518;-81
2022/12/23 07:30:06;;;;;;;;;1.00;1.00;;;;;14.34;100.00;100486.53;5032255;28;45532;-82
2022/12/23 07:32:32;;;;;;;;;1.00;1.00;;;;;14.30;100.00;100490.66;5045959;28;45225;-81
2022/12/23 07:34:57;;;;;;;;;4.00;1.00;;;;;14.31;100.00;100478.69;5032429;28;45343;-81
2022/12/23 07:37:22;;;;;;;;;0.67;0.67;;;;;14.21;100.00;100464.38;5037901;28;46531;-81
2022/12/23 07:39:48;;;;;;;;;1.00;1.00;;;;;14.34;100.00;100486.53;5037649;28;45427;-83
2022/12/23 07:42:13;;;;;;;;;1.00;0.00;;;;;14.37;100.00;100486.16;5026839;28;45277;-82
2022/12/23 07:44:38;;;;;;;;;1.33;1.33;;;;;14.36;100.00;100498.97;5033665;28;45374;-83
2022/12/23 07:47:04;;;;;;;;;2.00;0.00;;;;;14.32;100.00;100485.84;5031468;28;45471;-81
2022/12/23 07:49:29;;;;;;;;;1.00;1.00;;;;;14.44;100.00;100495.38;5034815;28;45461;-83
2022/12/23 07:51:55;;;;;;;;;1.00;1.00;;;;;14.46;100.00;100482.41;5039947;28;45442;-83
2022/12/23 07:54:20;;;;;;;;;1.00;1.00;;;;;14.49;100.00;100494.84;5041856;28;45372;-81
2022/12/23 07:56:45;;;;;;;;;0.00;0.00;;;;;14.48;100.00;100491.25;5033729;28;48033;-82
2022/12/23 07:59:11;;;;;;;;;0.33;0.33;;;;;14.48;100.00;100483.06;5032014;28;45389;-83
2022/12/23 08:01:36;;;;;;;;;1.00;1.00;;;;;14.50;100.00;100475.53;5035445;28;45403;-81
2022/12/23 08:04:01;;;;;;;;;0.67;0.67;;;;;14.52;100.00;100473.47;5039926;28;45516;-81
2022/12/23 08:06:27;;;;;;;;;0.00;0.00;;;;;14.56;100.00;100468.47;5036500;28;46295;-81
2022/12/23 08:08:52;;;;;;;;;1.00;1.00;;;;;14.54;100.00;100476.84;5030786;28;45274;-81
2022/12/23 08:11:18;;;;;;;;;1.00;0.00;;;;;14.60;100.00;100478.91;5041340;28;45552;-81
2022/12/23 08:13:44;;;;;;;;;0.33;0.33;;;;;14.62;100.00;100478.69;5039897;28;45343;-81
2022/12/23 08:16:10;;;;;;;;;1.00;1.00;;;;;14.57;100.00;100473.78;5037828;28;46759;-80
2022/12/23 08:18:38;;;;;;;;;1.33;0.33;;;;;14.62;100.00;100462.28;5040058;28;45490;-83
2022/12/23 08:21:17;;;;;;;;;0.67;0.67;;;;;14.61;100.00;100445.03;5033850;28;45437;-80
2022/12/23 08:23:45;;;;;;;;;0.67;0.67;;;;;14.68;100.00;100454.19;5039711;28;45472;-81
2022/12/23 08:26:21;;;;;;;;;1.00;1.00;;;;;14.64;100.00;100436.47;5036299;28;47360;-81
2022/12/23 08:28:48;;;;;;;;;0.00;0.00;;;;;14.60;100.00;100437.88;5040143;28;45450;-81
2022/12/23 08:31:13;;;;;;;;;1.00;1.00;;;;;14.62;100.00;100441.25;5034480;28;45315;-81
2022/12/23 08:33:41;;;;;;;;;3.00;1.00;;;;;14.66;100.00;100441.75;5041411;28;45226;-81
2022/12/23 08:36:08;;;;;;;;;5.00;1.00;;;;;14.62;100.00;100424.00;5034857;28;45486;-82
2022/12/23 08:38:35;;;;;;;;;0.00;0.00;;;;;14.70;100.00;100427.53;5033955;28;45323;-82
2022/12/23 08:41:01;;;;;;;;;1.67;1.00;;;;;14.71;100.00;100431.97;5033140;28;44789;-84
2022/12/23 08:43:26;;;;;;;;;0.67;0.67;;;;;14.67;100.00;100429.78;5034816;28;45460;-82
2022/12/23 08:45:52;;;;;;;;;1.00;1.00;;;;;14.69;100.00;100423.09;5031832;28;45316;-82
2022/12/23 08:48:17;;;;;;;;;0.00;0.00;;;;;14.72;100.00;100420.00;5034332;28;45362;-82
2022/12/23 08:50:45;;;;;;;;;0.00;0.00;;;;;14.79;100.00;100415.50;5039985;28;45696;-82
2022/12/23 08:53:11;;;;;;;;;0.00;0.00;;;;;14.80;100.00;100417.22;5041871;28;45255;-82
2022/12/23 08:55:42;;;;;;;;;0.00;0.00;;;;;14.79;100.00;100406.44;5035688;28;46861;-81
2022/12/23 08:58:09;;;;;;;;;2.00;2.00;;;;;14.72;100.00;100387.19;5029077;28;45315;-83
2022/12/23 09:00:35;;;;;;;;;2.00;2.00;;;;;14.76;100.00;100399.44;5036351;28;45407;-82
2022/12/23 09:03:00;;;;;;;;;1.00;1.00;;;;;14.77;100.00;100406.63;5036876;28;45329;-82
2022/12/23 09:05:26;;;;;;;;;0.00;0.00;;;;;14.73;100.00;100388.91;5034873;28;45245;-82
2022/12/23 09:07:51;;;;;;;;;0.67;0.67;;;;;14.78;100.00;100367.31;5034903;28;45481;-82
2022/12/23 09:10:17;;;;;;;;;0.00;0.00;;;;;14.82;100.00;100345.06;5038084;28;45532;-83
2022/12/23 09:12:42;;;;;;;;;0.00;0.00;;;;;14.84;100.00;100326.56;5043048;28;45272;-82
2022/12/23 09:15:08;;;;;;;;;1.33;1.33;;;;;14.82;100.00;100314.97;5036302;28;45702;-82
2022/12/23 09:17:33;;;;;;;;;1.00;1.00;;;;;14.77;100.00;100335.50;5038424;28;45319;-82
2022/12/23 09:19:59;;;;;;;;;0.00;0.00;;;;;14.75;100.00;100314.88;5034067;28;45432;-82
2022/12/23 09:22:24;;;;;;;;;1.33;1.33;;;;;14.77;100.00;100327.31;5038909;28;45380;-82
2022/12/23 09:24:49;;;;;;;;;1.00;1.00;;;;;14.77;100.00;100351.94;5031063;28;46247;-82
2022/12/23 09:27:15;;;;;;;;;1.00;1.00;;;;;14.85;100.00;100385.72;5030541;28;45423;-82
2022/12/23 09:29:40;;;;;;;;;2.00;0.67;;;;;14.82;100.00;100375.16;5029955;28;45798;-82
2022/12/23 09:32:05;;;;;;;;;4.00;2.33;;;;;14.89;100.00;100385.16;5037914;28;45648;-82
2022/12/23 09:34:31;;;;;;;;;0.00;0.00;;;;;14.91;100.00;100384.97;5031802;28;46517;-82
2022/12/23 09:36:56;;;;;;;;;2.00;2.00;;;;;14.92;100.00;100392.13;5027104;28;45480;-81
2022/12/23 09:39:23;;;;;;;;;6.00;6.00;;;;;14.97;100.00;100406.13;5026220;28;45774;-82
2022/12/23 09:41:51;;;;;;;;;0.33;0.33;;;;;14.91;100.00;100428.72;5024800;28;45463;-82
2022/12/23 09:45:03;;;;;;;;;0.00;0.00;;;;;14.95;100.00;100402.72;5026488;28;46298;-84
2022/12/23 09:47:32;;;;;;;;;1.67;0.00;;;;;15.00;100.00;100400.28;5039460;28;45443;-82
2022/12/23 09:50:01;;;;;;;;;1.00;1.00;;;;;15.05;100.00;100398.66;5024392;28;45457;-82
2022/12/23 09:52:42;;;;;;;;;0.00;0.00;;;;;15.11;100.00;100405.31;5034289;28;45720;-82
2022/12/23 09:55:10;;;;;;;;;3.00;3.00;;;;;15.06;100.00;100397.63;5024794;28;45497;-83
2022/12/23 09:57:50;;;;;;;;;0.00;0.00;;;;;15.07;100.00;100390.28;5025816;28;45356;-82
2022/12/23 10:00:20;;;;;;;;;0.67;0.00;;;;;15.02;100.00;100393.59;5024879;28;45522;-82
2022/12/23 10:03:24;;;;;;;;;0.00;0.00;;;;;15.10;100.00;100395.41;5025706;28;45609;-82
2022/12/23 10:06:13;;;;;;;;;0.00;0.00;;;;;15.16;100.00;100405.59;5037801;28;47315;-83
2022/12/23 10:08:44;;;;;;;;;0.00;0.00;;;;;15.17;100.00;100415.50;5032379;28;45700;-82
2022/12/23 10:11:20;;;;;;;;;1.00;1.00;;;;;15.02;100.00;100398.22;5023870;28;45339;-80
2022/12/23 10:13:55;;;;;;;;;0.00;0.00;;;;;15.02;100.00;100387.25;5026813;28;45369;-81
2022/12/23 10:16:29;;;;;;;;;0.33;0.00;;;;;15.15;100.00;100384.72;5023925;28;45327;-83
2022/12/23 10:19:00;;;;;;;;;0.67;0.00;;;;;15.20;100.00;100374.06;5023830;28;45332;-80
2022/12/23 10:21:36;;;;;;;;;0.00;0.00;;;;;15.14;100.00;100372.09;5033000;28;45456;-82
2022/12/23 10:24:11;;;;;;;;;2.00;2.00;;;;;15.19;100.00;100364.19;5030843;28;45586;-82
2022/12/23 10:27:09;;;;;;;;;0.00;0.00;;;;;15.28;100.00;100373.13;5038449;28;45604;-81
2022/12/23 10:29:34;;;;;;;;;0.00;0.00;;;;;15.28;100.00;100384.06;5029743;28;45464;-81
2022/12/23 10:32:35;;;;;;;;;0.00;0.00;;;;;15.28;100.00;100376.72;5035160;28;45308;-80
2022/12/23 10:35:19;;;;;;;;;0.00;0.00;;;;;15.32;100.00;100377.22;5017969;28;45741;-83
2022/12/23 10:37:44;;;;;;;;;0.00;0.00;;;;;15.29;100.00;100388.50;5033354;28;47208;-82
2022/12/23 10:40:26;;;;;;;;;0.00;0.00;;;;;15.33;100.00;100382.50;5029675;28;45404;-79
2022/12/23 10:42:57;;;;;;;;;0.00;0.00;;;;;15.29;100.00;100388.50;5026599;28;45633;-80
2022/12/23 10:46:00;;;;;;;;;2.00;0.00;;;;;15.24;100.00;100390.97;5026293;28;45573;-79
2022/12/23 10:48:48;;;;;;;;;2.00;2.00;;;;;15.30;100.00;100391.06;5019849;28;45820;-79
2022/12/23 10:51:21;;;;;;;;;0.33;0.33;;;;;15.31;100.00;100368.13;5022744;28;45778;-79
2022/12/23 10:53:54;;;;;;;;;0.33;0.00;;;;;15.31;100.00;100359.94;5024597;28;45559;-79
2022/12/23 10:56:20;;;;;;;;;0.00;0.00;;;;;15.35;100.00;100361.25;5029182;28;45449;-80
2022/12/23 10:58:51;;;;;;;;;0.00;0.00;;;;;15.43;100.00;100365.78;5024369;28;45552;-81
2022/12/23 11:01:18;;;;;;;;;1.67;1.00;;;;;15.51;100.00;100347.38;5021217;28;45572;-78
2022/12/23 11:04:13;;;;;;;;;1.00;1.00;;;;;15.54;100.00;100355.25;5026659;28;45232;-78
2022/12/23 11:06:44;;;;;;;;;1.67;1.00;;;;;15.61;100.00;100360.81;5035936;28;45207;-78
2022/12/23 11:09:16;;;;;;;;;0.00;0.00;;;;;15.65;100.00;100369.47;5035735;28;45426;-79
2022/12/23 11:11:55;;;;;;;;;0.00;0.00;;;;;15.57;100.00;100360.31;5026117;28;45394;-79
2022/12/23 11:14:41;;;;;;;;;1.33;0.33;;;;;15.58;100.00;100372.13;5035676;28;45466;-78
2022/12/23 11:17:25;;;;;;;;;0.33;0.33;;;;;15.61;100.00;100373.66;5027107;28;45333;-78
2022/12/23 11:20:14;;;;;;;;;0.00;0.00;;;;;15.59;100.00;100376.56;5042090;28;46415;-78
2022/12/23 11:23:03;;;;;;;;;0.00;0.00;;;;;15.57;100.00;100379.50;5027539;28;45362;-78
2022/12/23 11:25:31;;;;;;;;;0.00;0.00;;;;;15.67;100.00;100378.34;5037708;28;45346;-79
2022/12/23 11:28:11;;;;;;;;;6.33;6.33;;;;;15.77;100.00;100381.66;5030376;28;45467;-78
2022/12/23 11:30:56;;;;;;;;;4.00;2.67;;;;;15.74;100.00;100377.41;5032409;28;46165;-79
2022/12/23 11:33:28;;;;;;;;;2.00;1.00;;;;;15.80;100.00;100387.59;5036411;28;45347;-78
2022/12/23 11:36:16;;;;;;;;;0.00;0.00;;;;;15.93;100.00;100370.47;5037358;28;45276;-80
2022/12/23 11:39:05;;;;;;;;;1.00;1.00;;;;;15.93;100.00;100360.34;5052388;28;45480;-79
2022/12/23 11:41:38;;;;;;;;;3.00;2.00;;;;;16.00;100.00;100376.88;5029194;28;46045;-78
2022/12/23 11:44:09;;;;;;;;;1.00;1.00;;;;;16.02;100.00;100379.44;5039814;28;45339;-78
2022/12/23 11:46:35;;;;;;;;;0.33;0.33;;;;;15.89;100.00;100369.16;5037678;28;45529;-80
2022/12/23 11:49:20;;;;;;;;;1.00;0.00;;;;;16.03;100.00;100365.53;5043844;28;45398;-79
2022/12/23 11:51:58;;;;;;;;;0.00;0.00;;;;;16.07;100.00;100358.63;5039638;28;45414;-79
2022/12/23 11:54:23;;;;;;;;;3.00;3.00;;;;;16.06;100.00;100356.94;5037211;28;45449;-77
2022/12/23 11:56:51;;;;;;;;;1.00;1.00;;;;;16.07;100.00;100375.06;5028529;28;45544;-79